Time;durP1;ratioP1;P1;durP2;ratioP2;P2;SDS_P1;SDS_P2;PMS_P1;PMS_P2;Temp;Humidity;BMP_temperature;BMP_pressure;BME280_temperature;BME280_humidity;BME280_pressure;Samples;Min_cycle;Max_cycle;Signal;HPM_P1;HPM_P2
2023/02/17 00:02:47;;;;;;;;;54.25;43.00;;;;;6.58;63.91;102322.47;146624;565;46010;-75
2023/02/17 00:05:48;;;;;;;;;50.00;41.50;;;;;6.51;64.06;102314.00;146619;709;45016;-74
2023/02/17 00:08:58;;;;;;;;;58.50;46.25;;;;;6.41;64.12;102310.59;146623;564;46010;-73
2023/02/17 00:11:56;;;;;;;;;56.00;45.00;;;;;6.32;64.56;102309.72;146620;586;46012;-74
2023/02/17 00:15:06;;;;;;;;;44.50;35.75;;;;;6.25;64.49;102307.34;146620;608;46021;-74
2023/02/17 00:17:58;;;;;;;;;50.25;40.50;;;;;6.16;64.68;102306.47;146619;614;46016;-73
2023/02/17 00:20:58;;;;;;;;;62.50;47.50;;;;;6.06;65.01;102297.00;146622;583;46011;-72
2023/02/17 00:23:53;;;;;;;;;46.75;36.25;;;;;5.99;65.17;102289.47;146617;566;46016;-73
2023/02/17 00:26:48;;;;;;;;;34.50;29.75;;;;;5.92;66.19;102302.44;146623;577;46010;-71
2023/02/17 00:30:06;;;;;;;;;32.00;24.75;;;;;5.86;66.35;102297.66;146614;627;47916;-72
2023/02/17 00:33:12;;;;;;;;;35.50;29.25;;;;;5.88;68.34;102305.50;146624;678;46020;-73
2023/02/17 00:36:33;;;;;;;;;33.25;24.75;;;;;4.07;67.99;101980.56;146619;654;46017;-75
2023/02/17 00:39:35;;;;;;;;;24.50;23.75;;;;;5.86;68.69;102291.59;146624;649;46010;-74
2023/02/17 00:42:59;;;;;;;;;39.75;32.00;;;;;4.35;67.35;102034.59;146618;601;45037;-74
2023/02/17 00:46:02;;;;;;;;;;;;;;;;;;;;;
2023/02/17 00:49:13;;;;;;;;;;;;;;;;;;;;;
2023/02/17 00:52:36;;;;;;;;;33.25;29.00;;;;;5.77;68.43;102278.75;146622;619;46012;-72
2023/02/17 00:55:54;;;;;;;;;47.50;38.25;;;;;5.76;67.73;102274.34;146616;601;46016;-72
2023/02/17 00:58:50;;;;;;;;;37.00;30.50;;;;;5.81;67.97;102269.66;146618;571;46020;-72
2023/02/17 01:01:43;;;;;;;;;34.50;28.75;;;;;5.82;67.70;102267.22;146620;575;46014;-72
2023/02/17 01:04:47;;;;;;;;;37.25;31.75;;;;;5.77;68.90;102264.22;146622;592;46021;-72
2023/02/17 01:07:51;;;;;;;;;31.75;27.25;;;;;5.70;68.69;102271.19;146619;592;46016;-71
2023/02/17 01:10:59;;;;;;;;;31.25;28.50;;;;;5.72;68.52;102269.69;146621;619;46020;-71
2023/02/17 01:14:04;;;;;;;;;35.25;31.00;;;;;5.76;68.18;102272.72;146619;634;46017;-71
2023/02/17 01:17:03;;;;;;;;;32.50;25.50;;;;;5.75;68.74;102267.41;146618;617;46020;-76
2023/02/17 01:20:15;;;;;;;;;30.75;24.50;;;;;5.65;68.50;102255.34;146616;617;46016;-74
2023/02/17 01:23:15;;;;;;;;;25.50;23.00;;;;;5.60;68.49;102253.97;146620;576;46020;-75
2023/02/17 01:26:31;;;;;;;;;32.50;27.00;;;;;3.82;68.28;101949.03;146618;576;45016;-73
2023/02/17 01:29:28;;;;;;;;;35.00;27.50;;;;;5.49;68.67;102249.50;146622;585;46020;-73
2023/02/17 01:32:22;;;;;;;;;31.50;27.00;;;;;5.48;68.98;102247.66;146618;571;45026;-71
2023/02/17 01:35:37;;;;;;;;;30.00;25.25;;;;;4.47;68.08;102066.59;146621;605;46020;-72
2023/02/17 01:38:38;;;;;;;;;33.00;26.50;;;;;5.55;68.48;102258.69;146618;613;46012;-74
2023/02/17 01:41:38;;;;;;;;;40.00;31.50;;;;;5.55;68.02;102257.78;146620;594;46020;-73
2023/02/17 01:44:37;;;;;;;;;33.00;28.25;;;;;5.54;67.82;102250.81;146617;603;46016;-73
2023/02/17 01:47:32;;;;;;;;;30.25;30.00;;;;;5.47;68.00;102249.31;146620;574;46020;-73
2023/02/17 01:50:34;;;;;;;;;43.75;33.25;;;;;5.38;68.37;102247.53;146615;724;46016;-74
2023/02/17 01:53:51;;;;;;;;;46.25;36.00;;;;;5.31;69.18;102248.62;146619;610;46020;-74
2023/02/17 01:56:52;;;;;;;;;48.25;39.00;;;;;5.22;70.78;102240.00;146620;586;46016;-74
2023/02/17 02:00:02;;;;;;;;;53.25;38.25;;;;;3.48;69.44;101947.41;146623;600;46010;-73
2023/02/17 02:03:08;;;;;;;;;43.50;34.75;;;;;5.12;69.78;102239.87;146619;572;46016;-74
2023/02/17 02:06:24;;;;;;;;;38.75;33.75;;;;;5.08;68.86;102241.25;146622;608;47011;-73
2023/02/17 02:09:44;;;;;;;;;48.50;38.50;;;;;4.04;69.01;102064.97;146621;584;46012;-75
2023/02/17 02:12:59;;;;;;;;;51.25;38.50;;;;;4.97;68.74;102242.75;146624;582;46011;-75
2023/02/17 02:16:14;;;;;;;;;50.75;41.00;;;;;4.91;69.35;102237.03;146618;723;46012;-73
2023/02/17 02:20:04;;;;;;;;;50.50;36.50;;;;;3.87;69.36;102070.09;146623;578;46020;-73
2023/02/17 02:23:39;;;;;;;;;40.50;33.75;;;;;4.75;70.35;102228.56;146617;576;46913;-76
2023/02/17 02:27:35;;;;;;;;;27.00;25.25;;;;;4.70;70.59;102228.09;146620;628;47008;-72
2023/02/17 02:31:25;;;;;;;;;;;;;;;;;;;;;
2023/02/17 02:34:55;;;;;;;;;35.25;29.25;;;;;3.27;70.88;101987.22;146621;570;46021;-69
2023/02/17 02:38:33;;;;;;;;;29.00;24.25;;;;;3.73;70.60;102035.38;146616;657;46012;-69
2023/02/17 02:41:32;;;;;;;;;23.75;20.75;;;;;4.83;71.67;102209.69;146622;582;46011;-71
2023/02/17 02:44:37;;;;;;;;;29.00;23.25;;;;;4.86;70.50;102213.47;146618;579;46012;-76
2023/02/17 02:47:56;;;;;;;;;26.25;23.00;;;;;4.89;70.18;102214.50;146621;593;46020;-76
2023/02/17 02:51:47;;;;;;;;;27.00;25.50;;;;;4.92;69.53;102205.41;146617;582;46014;-77
2023/02/17 02:55:27;;;;;;;;;30.50;23.00;;;;;4.01;68.89;102040.66;146622;571;46010;-73
2023/02/17 02:58:45;;;;;;;;;42.75;35.50;;;;;5.02;71.29;102212.38;146619;599;46016;-72
2023/02/17 03:02:10;;;;;;;;;51.75;41.25;;;;;5.05;70.52;102210.09;146622;569;46020;-71
2023/02/17 03:05:42;;;;;;;;;;;;;;;;;;;;;
2023/02/17 03:09:18;;;;;;;;;52.75;40.50;;;;;5.01;69.54;102210.56;146622;642;46020;-72
2023/02/17 03:12:26;;;;;;;;;53.00;35.75;;;;;3.80;70.59;101998.38;146621;659;46012;-71
2023/02/17 04:06:43;;;;;;;;;24.25;22.25;;;;;2.26;74.63;101843.78;146623;656;46020;-75
2023/02/17 04:09:45;;;;;;;;;29.00;25.25;;;;;4.32;74.99;102199.53;146617;583;46001;-73
2023/02/17 04:12:56;;;;;;;;;34.00;25.50;;;;;4.32;75.75;102196.06;146623;618;46012;-73
2023/02/17 04:16:12;;;;;;;;;;;;;;;;;;;;;
2023/02/17 04:19:31;;;;;;;;;26.75;23.25;;;;;4.32;75.60;102219.19;146623;586;46010;-73
2023/02/17 04:22:48;;;;;;;;;32.00;25.25;;;;;4.32;73.66;102208.91;146616;700;46016;-73
2023/02/17 04:25:50;;;;;;;;;36.75;32.75;;;;;4.37;73.67;102207.72;146617;607;46020;-73
2023/02/17 04:28:53;;;;;;;;;36.25;32.75;;;;;4.40;73.16;102213.16;146619;584;46014;-72
2023/02/17 04:31:51;;;;;;;;;40.75;33.75;;;;;4.40;72.77;102215.72;146617;649;47010;-71
2023/02/17 04:34:47;;;;;;;;;39.75;32.00;;;;;4.43;72.79;102215.12;146617;578;46017;-72
2023/02/17 04:37:42;;;;;;;;;35.25;30.50;;;;;4.40;72.98;102215.72;146619;572;46020;-72
2023/02/17 04:40:55;;;;;;;;;32.50;27.75;;;;;4.35;71.99;102225.53;146621;569;45016;-73
2023/02/17 04:44:07;;;;;;;;;35.00;29.25;;;;;4.32;72.13;102227.78;146619;572;46020;-72
2023/02/17 04:47:06;;;;;;;;;33.25;29.25;;;;;4.30;72.62;102228.38;146618;624;46915;-72
2023/02/17 04:49:59;;;;;;;;;43.50;34.00;;;;;4.23;72.63;102228.53;146622;707;46011;-73
2023/02/17 04:53:13;;;;;;;;;50.00;37.00;;;;;3.11;72.31;102050.47;146614;577;47016;-72
2023/02/17 04:56:16;;;;;;;;;68.75;54.25;;;;;4.10;74.34;102232.41;146623;611;45021;-73
2023/02/17 04:59:24;;;;;;;;;51.00;39.00;;;;;3.08;74.85;102056.19;146619;591;46012;-73
2023/02/17 05:02:27;;;;;;;;;29.50;25.75;;;;;2.96;74.79;102042.09;146620;565;46012;-73
2023/02/17 05:05:33;;;;;;;;;29.00;26.25;;;;;3.99;74.49;102233.00;146616;565;46016;-73
2023/02/17 05:08:42;;;;;;;;;;;;;;;;;;;;;
2023/02/17 05:11:40;;;;;;;;;27.25;23.00;;;;;4.01;75.99;102228.03;146619;632;46016;-74
2023/02/17 05:14:47;;;;;;;;;30.75;27.25;;;;;4.00;76.80;102239.94;146623;616;46020;-73
2023/02/17 05:17:49;;;;;;;;;33.00;24.50;;;;;3.98;75.77;102228.59;146621;715;46012;-74
2023/02/17 05:21:05;;;;;;;;;33.00;31.00;;;;;3.98;77.33;102236.31;146626;592;46010;-75
2023/02/17 05:24:04;;;;;;;;;29.50;27.50;;;;;4.00;75.57;102233.91;146621;590;46012;-76
2023/02/17 05:27:27;;;;;;;;;37.50;29.50;;;;;3.04;74.50;102063.41;146621;649;45021;-72
2023/02/17 05:30:20;;;;;;;;;38.00;30.25;;;;;3.99;76.35;102240.72;146620;569;45034;-73
2023/02/17 05:33:29;;;;;;;;;38.75;31.00;;;;;4.04;76.98;102252.34;146622;592;45031;-72
2023/02/17 05:36:24;;;;;;;;;35.25;27.75;;;;;4.06;75.52;102247.37;146617;628;46914;-71
2023/02/17 05:39:17;;;;;;;;;40.00;32.00;;;;;4.08;76.91;102254.47;146620;729;46020;-72
2023/02/17 05:42:09;;;;;;;;;35.75;28.00;;;;;4.12;76.31;102248.91;146616;655;46017;-78
2023/02/17 05:45:03;;;;;;;;;39.75;31.00;;;;;4.18;77.58;102258.88;146622;597;45020;-78
2023/02/17 05:47:55;;;;;;;;;35.50;32.75;;;;;4.20;78.48;102251.31;146617;793;46016;-76
2023/02/17 05:50:48;;;;;;;;;40.75;32.00;;;;;4.25;77.79;102258.75;146622;569;45020;-75
2023/02/17 05:53:41;;;;;;;;;41.25;35.25;;;;;4.33;76.54;102262.06;146618;577;46012;-74
2023/02/17 05:56:43;;;;;;;;;43.25;34.50;;;;;4.57;78.90;102264.53;146620;662;46020;-77
2023/02/17 05:59:46;;;;;;;;;46.25;35.50;;;;;5.04;78.40;102270.87;146617;610;46016;-75
2023/02/17 06:02:55;;;;;;;;;43.75;35.75;;;;;5.79;76.84;102264.34;146621;570;46021;-77
2023/02/17 06:06:01;;;;;;;;;;;;;;;;;;;;;
2023/02/17 06:08:57;;;;;;;;;54.25;40.25;;;;;7.58;73.46;102272.12;146622;583;45020;-72
2023/02/17 06:11:58;;;;;;;;;53.50;42.00;;;;;8.48;68.46;102263.56;146621;732;46012;-73
2023/02/17 06:14:52;;;;;;;;;53.75;41.00;;;;;9.17;65.86;102264.97;146621;624;46020;-71
2023/02/17 06:17:48;;;;;;;;;48.75;37.25;;;;;9.73;63.65;102264.22;146620;650;45016;-73
2023/02/17 06:20:45;;;;;;;;;62.00;48.75;;;;;10.24;61.61;102261.28;146622;612;46020;-72
2023/02/17 06:23:41;;;;;;;;;46.75;37.00;;;;;10.57;61.89;102273.38;146618;579;46016;-73
2023/02/17 06:26:39;;;;;;;;;51.25;42.00;;;;;10.99;58.91;102274.78;146620;616;46021;-72
2023/02/17 06:29:51;;;;;;;;;44.00;35.50;;;;;11.33;57.69;102280.75;146616;580;46016;-72
2023/02/17 06:33:01;;;;;;;;;41.00;33.00;;;;;11.65;59.00;102274.37;146622;571;46010;-71
2023/02/17 06:35:57;;;;;;;;;49.25;36.50;;;;;11.90;57.91;102277.06;146613;574;46016;-72
2023/02/17 06:39:00;;;;;;;;;49.75;37.75;;;;;12.20;58.38;102275.72;146621;584;46020;-74
2023/02/17 06:41:55;;;;;;;;;42.25;33.25;;;;;12.45;57.12;102271.41;146616;565;46016;-72
2023/02/17 06:45:02;;;;;;;;;45.00;35.25;;;;;11.67;55.80;102114.31;146621;616;46010;-71
2023/02/17 06:48:11;;;;;;;;;52.00;41.50;;;;;12.84;54.85;102281.81;146617;607;46017;-71
2023/02/17 06:51:13;;;;;;;;;66.25;52.00;;;;;13.04;54.24;102283.12;146621;628;47010;-72
2023/02/17 06:54:12;;;;;;;;;58.00;45.75;;;;;13.06;52.90;102287.66;146617;570;46016;-70
2023/02/17 06:57:09;;;;;;;;;65.50;50.25;;;;;12.97;52.81;102280.94;146623;613;46010;-70
2023/02/17 07:00:03;;;;;;;;;63.25;47.50;;;;;12.81;53.03;102290.31;146617;571;46016;-71
2023/02/17 07:03:48;;;;;;;;;65.50;49.50;;;;;11.82;53.92;102132.66;146620;570;46023;-74
2023/02/17 07:07:02;;;;;;;;;;;;;;;;;;;;;
2023/02/17 07:10:10;;;;;;;;;69.25;53.00;;;;;12.65;53.84;102291.00;146622;572;46010;-73
2023/02/17 07:13:18;;;;;;;;;68.00;51.75;;;;;12.60;53.54;102288.88;146616;650;46913;-71
2023/02/17 07:16:23;;;;;;;;;75.50;59.00;;;;;12.53;53.55;102292.75;146619;601;46020;-71
2023/02/17 07:19:20;;;;;;;;;69.75;55.00;;;;;12.46;53.60;102286.22;146621;604;46012;-71
2023/02/17 07:22:19;;;;;;;;;70.50;54.75;;;;;12.44;53.65;102287.81;146619;590;46010;-71
2023/02/17 07:25:33;;;;;;;;;;;;;;;;;;;;;
2023/02/17 07:28:33;;;;;;;;;68.25;53.50;;;;;12.36;54.10;102294.19;146623;622;45029;-71
2023/02/17 07:31:43;;;;;;;;;73.25;58.25;;;;;12.29;53.80;102291.06;146619;574;46012;-72
2023/02/17 07:34:44;;;;;;;;;67.75;51.50;;;;;12.18;54.17;102298.09;146624;574;46010;-74
2023/02/17 07:37:39;;;;;;;;;68.75;53.00;;;;;12.12;54.18;102300.28;146618;591;46917;-72
2023/02/17 07:40:34;;;;;;;;;69.75;53.50;;;;;12.19;55.12;102299.94;146624;600;46020;-71
2023/02/17 07:43:29;;;;;;;;;72.50;53.75;;;;;12.32;54.68;102301.69;146613;628;46917;-71
2023/02/17 07:46:33;;;;;;;;;66.75;51.00;;;;;12.44;55.67;102290.41;146624;564;45020;-72
2023/02/17 07:49:33;;;;;;;;;67.50;51.00;;;;;12.61;55.90;102296.75;146616;581;46016;-72
2023/02/17 07:52:45;;;;;;;;;67.50;52.00;;;;;12.88;55.69;102294.22;146624;581;46010;-72
2023/02/17 07:55:37;;;;;;;;;61.50;48.75;;;;;13.07;54.13;102299.84;146618;614;46017;-71
2023/02/17 07:58:51;;;;;;;;;61.75;48.00;;;;;13.25;54.85;102291.50;146622;608;46010;-71
2023/02/17 08:01:48;;;;;;;;;60.50;45.75;;;;;13.46;52.57;102290.28;146614;573;47917;-72
2023/02/17 08:04:46;;;;;;;;;52.75;41.25;;;;;13.52;51.83;102295.88;146624;603;46010;-71
2023/02/17 08:13:17;;;;;;;;;52.25;41.00;;;;;13.53;53.21;102295.06;146618;604;46016;-72
2023/02/17 08:14:43;;;;;;;;;47.75;38.25;;;;;13.53;53.00;102286.34;146619;573;45018;-71
2023/02/17 08:17:47;;;;;;;;;53.00;41.00;;;;;13.56;52.50;102289.16;146621;781;46021;-70
2023/02/17 08:20:40;;;;;;;;;52.25;40.50;;;;;13.02;53.46;102172.75;146619;563;46016;-70
2023/02/17 08:23:45;;;;;;;;;47.75;38.50;;;;;13.96;52.85;102303.03;146623;700;47010;-70
2023/02/17 08:26:47;;;;;;;;;48.00;37.50;;;;;14.18;51.45;102291.31;146616;571;46016;-69
2023/02/17 08:29:50;;;;;;;;;37.50;29.00;;;;;14.31;51.51;102302.56;146621;649;46010;-69
2023/02/17 08:32:43;;;;;;;;;48.00;37.00;;;;;14.45;50.43;102299.91;146618;595;46013;-69
2023/02/17 08:35:52;;;;;;;;;;;;;;;;;;;;;
2023/02/17 08:39:24;;;;;;;;;50.50;39.25;;;;;12.90;52.16;102008.88;146618;576;46913;-69
2023/02/17 08:42:18;;;;;;;;;50.75;40.00;;;;;14.64;50.73;102292.44;146622;629;46020;-70
2023/02/17 08:45:18;;;;;;;;;53.50;42.50;;;;;14.71;50.24;102297.19;146620;694;46015;-67
2023/02/17 08:48:17;;;;;;;;;55.00;42.00;;;;;14.77;50.88;102288.81;146623;790;46020;-68
2023/02/17 08:51:14;;;;;;;;;51.00;40.75;;;;;14.84;50.45;102284.88;146619;616;46016;-71
2023/02/17 08:54:32;;;;;;;;;48.25;38.75;;;;;13.80;51.31;102094.25;146623;607;46010;-69
2023/02/17 08:57:36;;;;;;;;;44.50;37.00;;;;;14.98;51.14;102283.94;146618;614;46915;-71
2023/02/17 09:00:37;;;;;;;;;47.75;38.75;;;;;15.12;50.97;102284.75;146621;788;46020;-69
2023/02/17 09:03:42;;;;;;;;;;;;;;;;;;;;;
2023/02/17 09:07:09;;;;;;;;;47.00;38.50;;;;;15.21;52.18;102296.62;146622;607;46010;-72
2023/02/17 09:10:12;;;;;;;;;;;;;;;;;;;;;
2023/02/17 09:13:12;;;;;;;;;52.25;40.25;;;;;15.48;50.62;102280.69;146623;583;45022;-70
2023/02/17 09:16:04;;;;;;;;;46.50;35.75;;;;;15.64;50.20;102279.88;146618;625;46014;-70
2023/02/17 09:19:04;;;;;;;;;43.75;34.00;;;;;15.84;50.74;102279.25;146622;575;46020;-70
2023/02/17 09:22:00;;;;;;;;;48.00;37.50;;;;;16.09;49.33;102267.50;146618;621;46016;-70
2023/02/17 09:24:54;;;;;;;;;45.00;33.75;;;;;16.27;49.07;102264.97;146620;578;46020;-70
2023/02/17 09:28:04;;;;;;;;;47.00;35.50;;;;;16.38;48.19;102254.22;146618;595;46016;-71
2023/02/17 09:31:00;;;;;;;;;35.00;30.75;;;;;16.53;47.38;102254.13;146622;564;46021;-71
2023/02/17 09:34:12;;;;;;;;;;;;;;;;;;;;;
2023/02/17 09:37:13;;;;;;;;;39.75;31.50;;;;;16.72;47.25;102242.84;146622;603;45022;-70
2023/02/17 09:40:21;;;;;;;;;35.00;31.00;;;;;16.82;46.89;102246.84;146617;721;46916;-70
2023/02/17 09:43:37;;;;;;;;;41.75;32.00;;;;;16.90;48.06;102242.91;146619;563;46020;-70
2023/02/17 09:47:04;;;;;;;;;44.75;35.25;;;;;16.93;47.40;102235.22;146617;579;46016;-71
2023/02/17 09:50:46;;;;;;;;;44.50;34.25;;;;;16.00;47.87;102084.75;146619;573;46010;-70
2023/02/17 09:54:20;;;;;;;;;47.75;38.00;;;;;16.74;48.38;102232.47;146619;578;46014;-70
2023/02/17 09:58:04;;;;;;;;;39.25;33.25;;;;;16.71;47.50;102238.44;146623;645;46020;-70
2023/02/17 10:01:34;;;;;;;;;34.25;31.00;;;;;16.59;48.86;102232.59;146621;569;46012;-71
2023/02/17 10:04:40;;;;;;;;;42.50;33.50;;;;;16.39;48.66;102223.72;146621;573;46010;-69
2023/02/17 10:08:06;;;;;;;;;;;;;;;;;;;;;
2023/02/17 10:11:34;;;;;;;;;35.25;31.00;;;;;16.37;50.23;102222.75;146623;575;46012;-68
2023/02/17 10:15:20;;;;;;;;;33.25;29.25;;;;;16.41;50.57;102203.75;146619;564;46016;-71
2023/02/17 10:18:49;;;;;;;;;40.25;31.50;;;;;16.44;48.98;102195.16;146621;564;46020;-70
2023/02/17 10:21:53;;;;;;;;;43.25;33.75;;;;;16.43;50.88;102188.12;146618;586;46016;-70
2023/02/17 10:24:59;;;;;;;;;;;;;;;;;;;;;
2023/02/17 10:28:45;;;;;;;;;39.50;31.25;;;;;15.62;49.50;102026.13;146619;587;46014;-69
2023/02/17 10:32:00;;;;;;;;;37.75;31.50;;;;;16.50;50.30;102164.94;146623;608;46010;-69
2023/02/17 10:35:42;;;;;;;;;37.25;32.50;;;;;15.82;50.67;102032.41;146620;590;45917;-70
2023/02/17 10:39:10;;;;;;;;;35.50;31.75;;;;;16.57;51.16;102155.66;146621;624;46021;-70
2023/02/17 10:42:26;;;;;;;;;39.00;31.25;;;;;16.62;49.23;102156.78;146619;595;46016;-70
2023/02/17 10:45:54;;;;;;;;;;;;;;;;;;;;;
2023/02/17 10:49:08;;;;;;;;;41.00;32.25;;;;;15.92;50.31;102007.62;146620;648;46016;-69
2023/02/17 10:52:45;;;;;;;;;33.75;30.25;;;;;16.84;49.44;102140.44;146621;565;46010;-70
2023/02/17 10:56:27;;;;;;;;;42.50;32.50;;;;;16.39;50.07;102030.00;146620;571;46014;-71
2023/02/17 10:59:57;;;;;;;;;;;;;;;;;;;;;
2023/02/17 11:02:53;;;;;;;;;34.50;31.75;;;;;17.50;47.08;102125.16;146620;583;46014;-69
2023/02/17 11:06:28;;;;;;;;;40.50;29.00;;;;;16.90;48.87;102004.50;146623;598;46020;-71
2023/02/17 11:10:00;;;;;;;;;40.25;32.00;;;;;17.03;46.20;101991.12;146618;604;46016;-70
2023/02/17 11:13:26;;;;;;;;;33.00;29.00;;;;;17.70;44.44;102110.34;146623;600;46020;-73
2023/02/17 11:17:05;;;;;;;;;33.25;28.75;;;;;16.07;44.94;101869.69;146620;570;46012;-70
2023/02/17 11:20:39;;;;;;;;;29.50;25.50;;;;;16.22;45.51;101942.81;146624;578;46012;-70
2023/02/17 11:23:56;;;;;;;;;30.25;28.50;;;;;16.90;45.74;102098.81;146620;622;46012;-69
2023/02/17 11:27:14;;;;;;;;;36.25;29.50;;;;;16.88;48.61;102094.31;146623;578;46020;-69
2023/02/17 11:30:32;;;;;;;;;29.00;25.50;;;;;17.13;48.06;102089.41;146618;575;46017;-71
2023/02/17 11:34:00;;;;;;;;;;;;;;;;;;;;;
2023/02/17 11:37:33;;;;;;;;;25.75;24.00;;;;;17.51;44.21;102082.41;146618;586;46017;-70
2023/02/17 11:40:35;;;;;;;;;26.75;24.75;;;;;17.35;46.63;102079.91;146623;700;46010;-70
2023/02/17 11:44:01;;;;;;;;;27.00;24.00;;;;;17.31;46.82;102085.00;146618;620;46014;-70
2023/02/17 11:47:36;;;;;;;;;31.25;28.75;;;;;17.21;47.35;102079.28;146620;577;46020;-69
2023/02/17 11:51:11;;;;;;;;;30.75;26.75;;;;;17.17;46.53;102078.25;146617;598;46015;-69
2023/02/17 11:54:41;;;;;;;;;29.00;25.00;;;;;17.32;47.07;102078.06;146623;576;46010;-71
2023/02/17 11:58:32;;;;;;;;;;;;;;;;;;;;;
2023/02/17 12:02:09;;;;;;;;;;;;;;;;;;;;;
2023/02/17 12:05:31;;;;;;;;;29.25;22.50;;;;;17.66;47.69;102048.97;146620;738;46925;-70
2023/02/17 12:09:09;;;;;;;;;;;;;;;;;;;;;
2023/02/17 12:12:53;;;;;;;;;;;;;;;;;;;;;
2023/02/17 12:16:29;;;;;;;;;29.75;26.50;;;;;17.98;45.94;102050.37;146625;628;46012;-70
2023/02/17 12:20:00;;;;;;;;;33.75;30.00;;;;;17.59;45.17;102049.53;146621;580;46911;-70
2023/02/17 12:23:35;;;;;;;;;32.75;25.75;;;;;17.17;46.21;102038.94;146621;577;46021;-73
2023/02/17 12:26:50;;;;;;;;;34.25;28.00;;;;;16.98;46.00;102039.81;146616;599;46016;-71
2023/02/17 12:30:28;;;;;;;;;37.75;30.25;;;;;15.71;46.06;101827.03;146622;564;46020;-70
2023/02/17 12:34:09;;;;;;;;;41.00;32.75;;;;;15.99;47.33;101872.81;146620;588;46012;-68
2023/02/17 12:37:47;;;;;;;;;34.50;30.25;;;;;15.45;47.45;101778.66;146623;575;46010;-70
2023/02/17 12:41:06;;;;;;;;;37.25;31.50;;;;;16.94;46.79;102019.53;146618;576;46016;-71
2023/02/17 12:44:16;;;;;;;;;36.00;30.00;;;;;17.04;46.84;102015.59;146620;602;46021;-70
2023/02/17 12:47:54;;;;;;;;;36.25;31.25;;;;;17.09;46.60;102007.13;146619;663;45016;-70
2023/02/17 12:51:15;;;;;;;;;37.25;31.75;;;;;17.27;48.78;102016.66;146621;599;46021;-70
2023/02/17 12:54:43;;;;;;;;;38.25;31.00;;;;;17.46;47.35;102010.50;146621;633;46012;-70
2023/02/17 12:58:13;;;;;;;;;44.50;35.00;;;;;16.73;47.46;101884.91;146622;570;46010;-69
2023/02/17 13:01:33;;;;;;;;;;;;;;;;;;;;;
2023/02/17 13:04:52;;;;;;;;;47.75;37.00;;;;;16.83;48.03;101874.97;146619;566;46020;-69
2023/02/17 13:08:07;;;;;;;;;42.75;35.00;;;;;17.77;46.83;102008.38;146616;744;46016;-70
2023/02/17 13:11:38;;;;;;;;;44.50;31.25;;;;;16.60;47.05;101779.66;146623;564;45020;-70
2023/02/17 13:15:14;;;;;;;;;45.25;34.00;;;;;17.19;46.55;101873.84;146620;600;46012;-69
2023/02/17 13:18:38;;;;;;;;;42.75;34.00;;;;;17.45;46.84;101914.31;146621;565;46010;-71
2023/02/17 13:21:50;;;;;;;;;40.75;34.00;;;;;18.06;45.79;102005.16;146620;570;46016;-71
2023/02/17 13:25:11;;;;;;;;;37.25;32.00;;;;;18.04;44.98;102006.81;146623;608;46010;-70
2023/02/17 13:28:56;;;;;;;;;38.75;31.25;;;;;16.78;44.92;101781.28;146618;711;46017;-70
2023/02/17 13:32:07;;;;;;;;;26.25;23.50;;;;;18.09;43.56;101997.44;146620;569;46012;-69
2023/02/17 13:35:46;;;;;;;;;29.25;26.25;;;;;18.12;44.22;102005.44;146619;590;46012;-69
2023/02/17 13:39:01;;;;;;;;;;;;;;;;;;;;;
2023/02/17 13:42:00;;;;;;;;;25.75;23.75;;;;;18.22;42.49;101995.38;146617;611;46012;-70
2023/02/17 13:45:23;;;;;;;;;32.75;28.75;;;;;18.28;43.92;101988.56;146620;614;46010;-70
2023/02/17 13:48:36;;;;;;;;;26.25;23.25;;;;;18.33;41.98;101992.28;146617;572;46016;-70
2023/02/17 13:51:32;;;;;;;;;23.50;21.00;;;;;18.32;42.32;101994.00;146617;594;46021;-70
2023/02/17 13:54:45;;;;;;;;;;;;;;;;;;;;;
2023/02/17 13:57:43;;;;;;;;;25.75;25.25;;;;;18.36;41.25;101989.78;146620;611;46021;-70
2023/02/17 14:00:52;;;;;;;;;26.00;22.50;;;;;16.79;43.28;101730.69;146616;614;46016;-71
2023/02/17 14:03:58;;;;;;;;;27.25;23.50;;;;;18.20;41.97;101983.00;146618;656;46021;-70
2023/02/17 14:06:59;;;;;;;;;28.25;22.00;;;;;18.21;41.88;101979.53;146619;679;46016;-70
2023/02/17 14:10:01;;;;;;;;;25.50;22.00;;;;;18.25;43.25;101994.56;146622;674;46010;-70
2023/02/17 14:13:04;;;;;;;;;23.00;21.00;;;;;18.21;41.82;101984.78;146617;574;46017;-70
2023/02/17 14:16:08;;;;;;;;;31.75;24.25;;;;;18.09;43.04;101989.56;146620;569;46020;-70
2023/02/17 14:19:18;;;;;;;;;27.75;24.50;;;;;18.00;44.02;101987.44;146618;572;46014;-72
2023/02/17 14:22:58;;;;;;;;;25.75;22.25;;;;;16.78;40.90;101808.38;146615;621;46020;-75
2023/02/17 14:26:07;;;;;;;;;;;;;;;;;;;;;
2023/02/17 14:29:29;;;;;;;;;27.50;26.75;;;;;16.65;43.49;101842.69;146621;580;46020;-70
2023/02/17 14:33:10;;;;;;;;;30.25;26.50;;;;;16.56;45.44;101858.88;146618;580;46018;-69
2023/02/17 14:36:39;;;;;;;;;29.25;22.50;;;;;17.16;42.24;101975.94;146621;572;46021;-70
2023/02/17 14:40:29;;;;;;;;;24.00;19.50;;;;;17.08;45.53;101988.72;146619;585;46016;-70
2023/02/17 14:43:24;;;;;;;;;31.00;28.25;;;;;17.02;42.56;101986.72;146620;580;46021;-73
2023/02/17 14:46:25;;;;;;;;;26.25;23.50;;;;;16.94;44.19;101988.06;146618;563;46016;-68
2023/02/17 14:49:53;;;;;;;;;27.25;23.50;;;;;16.07;43.97;101853.13;146623;565;46010;-70
2023/02/17 14:53:03;;;;;;;;;29.50;28.00;;;;;16.72;44.06;101985.28;146620;576;46012;-75
2023/02/17 14:56:38;;;;;;;;;31.75;28.75;;;;;16.56;43.86;101986.28;146623;629;46010;-76
2023/02/17 14:59:39;;;;;;;;;30.50;28.75;;;;;16.40;43.53;101982.06;146620;586;46012;-75
2023/02/17 15:02:51;;;;;;;;;32.25;28.25;;;;;16.29;43.58;101988.47;146625;582;45020;-76
2023/02/17 15:05:53;;;;;;;;;30.25;28.00;;;;;16.20;44.75;101988.97;146620;619;46012;-77
2023/02/17 15:09:06;;;;;;;;;35.75;29.75;;;;;16.16;44.94;101987.88;146620;658;46010;-75
2023/02/17 15:12:23;;;;;;;;;35.50;31.00;;;;;15.40;46.03;101849.03;146621;584;46012;-76
2023/02/17 15:15:20;;;;;;;;;34.50;31.00;;;;;16.13;44.64;101985.13;146622;755;46020;-72
2023/02/17 15:18:33;;;;;;;;;34.50;29.00;;;;;16.07;45.44;101983.94;146616;565;46015;-71
2023/02/17 15:21:52;;;;;;;;;35.50;29.25;;;;;15.96;45.57;101987.75;146623;586;46010;-72
2023/02/17 15:24:52;;;;;;;;;30.00;26.25;;;;;15.85;44.97;101979.34;146622;590;45016;-73
2023/02/17 15:27:51;;;;;;;;;31.25;23.50;;;;;15.73;44.94;101974.41;146623;638;46020;-72
2023/02/17 15:31:09;;;;;;;;;30.25;27.75;;;;;15.60;46.57;101974.59;146618;600;46016;-74
2023/02/17 15:34:42;;;;;;;;;37.50;30.00;;;;;14.08;47.59;101737.81;146620;589;47010;-73
2023/02/17 15:37:40;;;;;;;;;30.75;27.25;;;;;15.31;46.09;101979.22;146619;670;45917;-73
2023/02/17 15:40:58;;;;;;;;;;;;;;;;;;;;;
2023/02/17 15:44:15;;;;;;;;;43.50;34.50;;;;;15.14;47.72;101988.81;146621;586;46012;-73
2023/02/17 15:47:23;;;;;;;;;42.00;32.50;;;;;15.11;48.12;101983.41;146622;692;45020;-73
2023/02/17 15:50:23;;;;;;;;;38.75;31.25;;;;;15.09;48.34;101990.25;146616;595;46016;-72
2023/02/17 15:53:17;;;;;;;;;44.25;33.75;;;;;15.03;48.51;101987.31;146622;671;46010;-71
2023/02/17 15:56:16;;;;;;;;;42.50;33.50;;;;;14.91;48.55;101987.56;146621;621;46014;-72
2023/02/17 15:59:14;;;;;;;;;32.50;30.50;;;;;14.75;48.59;101985.84;146622;595;46010;-72
2023/02/17 16:02:28;;;;;;;;;31.50;29.50;;;;;14.61;48.83;101993.72;146619;633;47015;-73
2023/02/17 16:05:22;;;;;;;;;28.00;27.00;;;;;14.46;49.14;102001.59;146623;587;46010;-73
2023/02/17 16:08:15;;;;;;;;;33.75;29.00;;;;;14.30;49.37;102003.34;146619;704;46014;-73
2023/02/17 16:11:08;;;;;;;;;38.00;32.00;;;;;14.13;50.38;102006.69;146621;641;46021;-74
2023/02/17 16:14:15;;;;;;;;;35.50;29.00;;;;;13.92;51.06;102006.34;146621;576;46014;-73
2023/02/17 16:17:25;;;;;;;;;;;;;;;;;;;;;
2023/02/17 16:20:45;;;;;;;;;35.50;30.50;;;;;13.05;53.12;101952.53;146615;603;46016;-73